Fort Hall, Idaho
Current Conditions -  °F | °C
As of 8:53 PM on Wednesday 22 Oct 2014 (Local Time) from KPIH Reporting Station
Clear Clear  
Wind Chill: 51°   Ceiling: Unl
Heat Index: 51°   Visibility: 10mi
Dew Point: 25°   Wind: 8mph
Humidity: 36%   Direction: 170°S
Pressure: 30.14"   Gusts: NA
Location:  43.03°N, 112.44°W
Report Text: KPIH 230253Z 17007KT 10SM CLR 11/M04 A3014 RMK AO2 SLP207 T01061039 58001
Loading
Personal Weather Stations






























Interactive Weather Map
Tropical Storm Tracking
New forecast layout! Learn more

10-Day Weather Forecast

Advertisements
Track Severe Weather on mobile